Time;durP1;ratioP1;P1;durP2;ratioP2;P2;SDS_P1;SDS_P2;PMS_P1;PMS_P2;Temp;Humidity;BMP_temperature;BMP_pressure;BME280_temperature;BME280_humidity;BME280_pressure;Samples;Min_cycle;Max_cycle;Signal;HPM_P1;HPM_P2
2024/03/28 00:01:04;;;;;;;22.35;12.63;;;10.00;99.90;;;12.64;100.00;97773.53;5037720;28;20125;-80
2024/03/28 00:03:30;;;;;;;;;;;10.00;99.90;;;12.76;100.00;97762.13;5036742;28;20548;-80
2024/03/28 00:05:57;;;;;;;21.35;13.27;;;10.00;99.90;;;12.44;100.00;97736.41;5036437;28;20021;-79
2024/03/28 00:08:24;;;;;;;22.42;12.65;;;10.00;99.90;;;12.85;100.00;97755.94;5053978;28;20068;-80
2024/03/28 00:10:52;;;;;;;24.13;12.75;;;9.90;99.90;;;12.82;100.00;97770.22;5054227;28;20037;-78
2024/03/28 00:13:19;;;;;;;22.38;12.23;;;9.90;99.90;;;12.85;100.00;97756.75;5036076;28;20098;-78
2024/03/28 00:15:44;;;;;;;25.08;13.82;;;9.90;99.90;;;13.05;100.00;97757.47;5054017;28;20392;-79
2024/03/28 00:18:11;;;;;;;22.35;13.00;;;9.90;99.90;;;12.58;100.00;97739.19;5036230;28;20045;-81
2024/03/28 00:20:37;;;;;;;21.83;12.75;;;9.90;99.90;;;12.77;100.00;97741.03;5053810;28;20502;-79
2024/03/28 00:23:04;;;;;;;23.20;13.23;;;9.80;99.90;;;12.56;100.00;97729.66;5053248;28;20099;-81
2024/03/28 00:25:30;;;;;;;23.88;12.27;;;9.80;99.90;;;12.66;100.00;97740.41;5036057;28;20032;-80
2024/03/28 00:28:02;;;;;;;23.88;11.95;;;9.80;99.90;;;12.55;100.00;97728.03;5036105;28;20041;-79
2024/03/28 00:30:28;;;;;;;26.05;13.50;;;9.80;99.90;;;12.61;100.00;97741.34;5053560;28;20112;-80
2024/03/28 00:32:53;;;;;;;23.52;13.13;;;9.80;99.90;;;12.72;100.00;97722.00;5036095;28;20409;-80
2024/03/28 00:35:19;;;;;;;24.20;13.80;;;9.80;99.90;;;12.89;100.00;97718.66;5036011;28;20029;-79
2024/03/28 00:37:45;;;;;;;23.48;13.40;;;9.80;99.90;;;13.27;100.00;97709.41;5019340;28;20388;-79
2024/03/28 00:40:14;;;;;;;23.27;13.27;;;9.70;99.90;;;12.95;100.00;97726.47;5035719;28;20481;-79
2024/03/28 00:42:40;;;;;;;24.67;13.30;;;9.70;99.90;;;12.66;100.00;97727.56;5053501;28;20092;-79
2024/03/28 00:45:06;;;;;;;26.65;14.25;;;9.60;99.90;;;12.46;100.00;97749.78;5054011;28;20060;-80
2024/03/28 00:47:31;;;;;;;25.55;13.32;;;9.60;99.90;;;13.37;100.00;97751.06;5035820;28;20044;-79
2024/03/28 00:49:57;;;;;;;26.02;13.90;;;9.60;99.90;;;12.62;100.00;97742.94;5036241;28;20040;-80
2024/03/28 00:52:24;;;;;;;27.33;15.27;;;9.50;99.90;;;12.35;100.00;97746.44;5053510;28;20045;-79
2024/03/28 00:54:50;;;;;;;25.95;14.57;;;9.50;99.90;;;12.47;100.00;97735.84;5051883;28;20439;-80
2024/03/28 00:57:15;;;;;;;25.92;14.05;;;9.50;99.90;;;12.33;100.00;97737.72;5053101;28;20048;-78
2024/03/28 00:59:41;;;;;;;28.05;14.40;;;9.40;99.90;;;13.14;100.00;97728.28;5053158;28;20094;-79
2024/03/28 01:02:07;;;;;;;27.75;15.18;;;9.40;99.90;;;12.72;100.00;97727.47;5053983;28;20041;-79
2024/03/28 01:04:32;;;;;;;27.77;14.27;;;9.40;99.90;;;13.04;100.00;97723.84;5053113;28;20389;-80
2024/03/28 01:06:58;;;;;;;25.75;13.70;;;9.30;99.90;;;12.54;100.00;97748.31;5053320;28;20048;-81
2024/03/28 01:09:24;;;;;;;29.08;14.95;;;9.30;99.90;;;12.95;100.00;97751.09;5052158;28;20041;-79
2024/03/28 01:11:50;;;;;;;30.40;15.85;;;9.30;99.90;;;12.07;100.00;97751.81;5018485;28;20385;-78
2024/03/28 01:14:15;;;;;;;30.65;15.50;;;9.20;99.90;;;12.70;100.00;97766.03;5053365;28;20080;-79
2024/03/28 01:16:41;;;;;;;27.80;15.10;;;9.20;99.90;;;13.13;100.00;97769.63;5051707;28;20029;-78
2024/03/28 01:19:07;;;;;;;29.05;14.15;;;9.20;99.90;;;13.30;100.00;97747.94;5053456;28;20041;-80
2024/03/28 01:21:32;;;;;;;30.08;15.75;;;9.20;99.90;;;12.74;100.00;97758.88;5052688;28;20044;-79
2024/03/28 01:23:58;;;;;;;35.00;18.00;;;9.10;99.90;;;12.58;100.00;97782.13;5035426;28;20033;-80
2024/03/28 01:26:24;;;;;;;36.95;18.30;;;9.10;99.90;;;12.48;100.00;97791.31;5052772;28;20033;-79
2024/03/28 01:28:49;;;;;;;35.22;16.83;;;8.90;99.90;;;12.36;100.00;97791.78;5051960;28;20044;-79
2024/03/28 01:31:15;;;;;;;39.25;19.63;;;8.80;99.90;;;12.33;100.00;97776.81;5052890;28;20036;-79
2024/03/28 01:33:41;;;;;;;40.35;19.27;;;8.70;99.90;;;12.11;100.00;97780.16;5052949;28;20394;-80
2024/03/28 01:36:06;;;;;;;39.55;18.88;;;8.50;99.90;;;11.94;100.00;97786.94;5053636;28;20033;-80
2024/03/28 01:38:32;;;;;;;42.00;19.10;;;8.50;99.90;;;11.85;100.00;97776.97;5035112;28;20036;-81
2024/03/28 01:40:58;;;;;;;40.28;18.75;;;8.30;99.90;;;11.73;100.00;97785.59;5051702;28;20063;-80
2024/03/28 01:43:24;;;;;;;42.28;18.27;;;8.20;99.90;;;11.54;100.00;97791.84;5035399;28;20040;-81
2024/03/28 01:45:50;;;;;;;42.42;18.58;;;8.10;99.90;;;11.41;100.00;97790.66;5053494;28;20033;-79
2024/03/28 01:48:16;;;;;;;40.53;16.35;;;8.00;99.90;;;11.32;100.00;97808.78;5053226;28;20043;-81
2024/03/28 01:50:42;;;;;;;38.28;15.50;;;7.90;99.90;;;11.29;100.00;97796.53;5035584;28;20029;-78
2024/03/28 01:53:09;;;;;;;33.63;14.88;;;7.80;99.90;;;11.23;100.00;97784.84;5053486;28;20039;-80
2024/03/28 01:55:38;;;;;;;29.92;12.48;;;7.70;99.90;;;11.21;100.00;97797.16;5053797;28;20459;-80
2024/03/28 01:58:09;;;;;;;29.75;11.88;;;7.60;99.90;;;10.42;100.00;97776.41;5035514;28;20112;-80
2024/03/28 02:00:35;;;;;;;25.35;10.15;;;7.50;99.90;;;10.50;100.00;97776.59;5034551;28;20064;-80
2024/03/28 02:03:02;;;;;;;22.30;9.82;;;7.40;99.90;;;10.59;100.00;97781.44;5034607;28;20029;-82
2024/03/28 02:05:28;;;;;;;21.02;8.60;;;7.30;99.90;;;10.41;100.00;97769.34;5052175;28;20033;-78
2024/03/28 02:07:54;;;;;;;16.48;6.80;;;7.20;99.90;;;10.30;100.00;97779.47;5052024;28;20037;-80
2024/03/28 02:10:21;;;;;;;15.60;6.82;;;7.10;99.90;;;9.96;100.00;97793.91;5034091;28;20041;-82
2024/03/28 02:12:48;;;;;;;13.05;5.50;;;7.00;99.90;;;10.26;100.00;97822.03;5051805;28;20124;-81
2024/03/28 02:15:14;;;;;;;12.27;5.35;;;6.90;99.90;;;10.25;100.00;97828.56;5052015;28;20040;-79
2024/03/28 02:17:50;;;;;;;12.75;5.57;;;6.80;99.90;;;10.47;100.00;97845.31;5051792;28;20401;-81
2024/03/28 02:20:19;;;;;;;14.45;5.40;;;;;;;10.19;100.00;97849.56;5051812;28;20040;-81
2024/03/28 02:22:45;;;;;;;9.57;4.50;;;6.80;99.90;;;9.93;100.00;97836.94;5051632;28;20033;-82
2024/03/28 02:25:11;;;;;;;10.40;5.30;;;6.70;99.90;;;9.75;100.00;97819.34;5051762;28;20063;-80
2024/03/28 02:27:37;;;;;;;13.52;5.45;;;6.70;99.90;;;9.91;100.00;97809.19;5044633;28;20037;-79
2024/03/28 02:30:08;;;;;;;12.63;5.28;;;6.60;99.90;;;10.13;100.00;97823.47;5031907;28;20065;-80
2024/03/28 02:32:35;;;;;;;10.10;5.28;;;6.60;99.90;;;10.08;100.00;97827.84;5031890;28;20033;-80
2024/03/28 02:35:05;;;;;;;10.40;4.78;;;6.60;99.90;;;9.90;100.00;97818.44;5031900;28;20505;-80
2024/03/28 02:37:32;;;;;;;10.65;5.22;;;6.60;99.90;;;9.88;100.00;97809.75;5031780;28;20468;-80
2024/03/28 02:39:58;;;;;;;11.40;4.95;;;6.60;99.90;;;9.84;100.00;97827.75;5031890;28;20064;-79
2024/03/28 02:42:24;;;;;;;10.43;4.65;;;6.50;99.90;;;10.05;100.00;97816.72;5014142;28;20037;-78
2024/03/28 02:44:50;;;;;;;9.98;4.68;;;6.50;99.90;;;10.00;100.00;97809.41;5032819;28;20037;-79
2024/03/28 02:47:15;;;;;;;10.27;5.22;;;6.50;99.90;;;10.07;100.00;97819.97;5035568;28;20045;-79
2024/03/28 02:49:41;;;;;;;13.45;5.05;;;6.50;99.90;;;10.09;100.00;97834.13;5035599;28;20055;-79
2024/03/28 02:52:07;;;;;;;9.35;4.90;;;6.40;99.90;;;9.92;100.00;97837.22;5017838;28;20045;-78
2024/03/28 02:54:33;;;;;;;9.52;4.60;;;6.40;99.90;;;9.92;100.00;97851.66;5035623;28;20040;-80
2024/03/28 02:57:04;;;;;;;13.63;5.78;;;6.40;99.90;;;10.07;100.00;97848.03;5017828;28;20044;-80
2024/03/28 02:59:31;;;;;;;9.82;4.57;;;6.40;99.90;;;10.00;100.00;97861.16;5017574;28;20061;-79
2024/03/28 03:01:57;;;;;;;10.50;5.00;;;6.40;99.90;;;9.83;100.00;97868.84;5035447;28;20041;-79
2024/03/28 03:04:23;;;;;;;13.73;5.65;;;6.40;99.90;;;9.72;100.00;97862.66;5035425;28;20620;-81
2024/03/28 03:06:50;;;;;;;13.00;5.82;;;6.30;99.90;;;9.81;100.00;97855.50;5017633;28;20057;-79
2024/03/28 03:09:16;;;;;;;13.88;6.85;;;6.30;99.90;;;9.67;100.00;97866.19;5035379;28;20121;-78
2024/03/28 03:11:42;;;;;;;13.88;6.75;;;6.30;99.90;;;9.97;100.00;97879.94;5050524;28;20068;-78
2024/03/28 03:14:08;;;;;;;14.18;6.85;;;6.30;99.90;;;9.86;100.00;97899.06;5035247;28;20140;-80
2024/03/28 03:16:35;;;;;;;15.57;7.88;;;6.30;99.90;;;9.73;100.00;97894.22;5035088;28;20524;-78
2024/03/28 03:19:01;;;;;;;17.90;8.30;;;6.20;99.90;;;10.05;100.00;97892.97;5035045;28;20037;-80
2024/03/28 03:21:27;;;;;;;14.55;7.45;;;6.30;99.90;;;10.03;100.00;97908.78;5035113;28;20124;-79
2024/03/28 03:24:00;;;;;;;14.82;7.85;;;6.30;99.90;;;9.89;100.00;97882.19;5035050;28;20441;-79
2024/03/28 03:26:30;;;;;;;16.92;7.82;;;6.30;99.90;;;10.06;100.00;97879.09;5017324;28;20396;-78
2024/03/28 03:34:39;;;;;;;16.15;7.00;;;6.20;99.90;;;9.50;100.00;97875.53;5017063;28;20124;-80
2024/03/28 03:37:18;;;;;;;14.70;6.78;;;6.10;99.90;;;10.03;100.00;97867.94;5034991;28;20114;-79
2024/03/28 03:39:44;;;;;;;15.43;6.85;;;6.10;99.90;;;9.89;100.00;97875.91;5034778;28;20044;-79
2024/03/28 03:42:10;;;;;;;13.57;6.50;;;6.10;99.90;;;9.79;100.00;97874.03;5034804;28;20401;-79
2024/03/28 03:44:37;;;;;;;13.68;5.93;;;6.00;99.90;;;9.64;100.00;97867.59;5034781;28;20045;-79
2024/03/28 03:47:03;;;;;;;11.48;6.28;;;6.00;99.90;;;9.68;100.00;97872.47;5034646;28;20038;-79
2024/03/28 03:49:28;;;;;;;10.90;5.70;;;6.00;99.90;;;9.74;100.00;97876.78;5034667;28;20103;-79
2024/03/28 03:51:54;;;;;;;12.43;5.93;;;5.90;99.90;;;9.83;100.00;97872.41;5034647;28;20037;-79
2024/03/28 03:54:20;;;;;;;11.43;5.60;;;5.90;99.90;;;9.76;100.00;97864.53;5034594;28;20064;-80
2024/03/28 03:56:45;;;;;;;12.35;6.18;;;5.90;99.90;;;9.58;100.00;97870.59;5015445;28;20053;-78
2024/03/28 03:59:11;;;;;;;14.10;6.50;;;5.90;99.90;;;9.77;100.00;97873.50;5034319;28;20053;-79
2024/03/28 04:01:37;;;;;;;12.70;5.43;;;5.80;99.90;;;9.49;100.00;97859.47;5034556;28;20152;-80
2024/03/28 04:04:04;;;;;;;10.43;5.65;;;5.80;99.90;;;9.58;100.00;97857.81;5034400;28;20060;-80
2024/03/28 04:06:30;;;;;;;11.65;5.43;;;5.80;99.90;;;9.62;100.00;97856.16;5034244;28;20061;-79
2024/03/28 04:08:55;;;;;;;9.48;4.95;;;5.80;99.90;;;9.67;100.00;97836.25;5049433;28;20452;-80
2024/03/28 04:11:21;;;;;;;14.23;5.18;;;5.70;99.90;;;10.01;100.00;97842.88;5049584;28;20069;-80
2024/03/28 04:13:47;;;;;;;12.30;5.47;;;5.70;99.90;;;10.04;100.00;97843.16;5016271;28;20073;-79
2024/03/28 04:16:12;;;;;;;9.75;5.40;;;5.70;99.90;;;10.11;100.00;97831.94;5034086;28;20033;-79
2024/03/28 04:18:38;;;;;;;10.65;5.82;;;5.70;99.90;;;9.80;100.00;97832.09;5034020;28;20037;-80
2024/03/28 04:21:04;;;;;;;11.60;6.05;;;5.70;99.90;;;10.11;100.00;97831.94;5034094;28;20044;-80
2024/03/28 04:23:30;;;;;;;8.43;5.22;;;5.70;99.90;;;10.25;100.00;97834.84;5034110;28;20160;-80
2024/03/28 04:25:58;;;;;;;11.15;6.05;;;5.70;99.90;;;10.05;100.00;97835.78;5034208;28;20072;-80
2024/03/28 04:28:24;;;;;;;10.73;5.88;;;5.70;99.90;;;10.17;100.00;97838.97;5034420;28;20034;-80
2024/03/28 04:30:51;;;;;;;9.93;5.80;;;5.70;99.90;;;10.24;100.00;97837.84;5034152;28;20096;-81
2024/03/28 04:33:18;;;;;;;9.30;5.30;;;5.60;99.90;;;10.05;100.00;97842.03;5032927;28;20547;-80
2024/03/28 04:35:46;;;;;;;10.02;6.25;;;5.60;99.90;;;10.04;100.00;97828.69;5034573;28;20124;-79
2024/03/28 04:38:12;;;;;;;9.05;5.18;;;5.60;99.90;;;10.14;100.00;97842.28;5049498;28;20492;-81
2024/03/28 04:40:38;;;;;;;9.77;5.78;;;5.60;99.90;;;9.91;100.00;97836.41;5034278;28;20034;-81
2024/03/28 04:43:04;;;;;;;9.63;5.75;;;5.60;99.90;;;9.96;100.00;97835.56;5016370;28;20086;-81
2024/03/28 04:45:29;;;;;;;10.98;5.70;;;5.60;99.90;;;10.01;100.00;97832.00;5034576;28;20440;-80
2024/03/28 04:47:55;;;;;;;9.77;5.25;;;5.60;99.90;;;10.05;100.00;97835.78;5049150;28;20456;-80
2024/03/28 04:50:21;;;;;;;10.60;5.95;;;5.60;99.90;;;10.04;100.00;97831.41;5033826;28;20030;-79
2024/03/28 04:52:47;;;;;;;10.25;6.03;;;5.60;99.90;;;9.93;100.00;97836.13;5033228;28;20175;-81
2024/03/28 04:55:14;;;;;;;10.55;6.03;;;5.60;99.90;;;10.20;100.00;97830.22;5015535;28;20034;-79
2024/03/28 04:57:40;;;;;;;8.50;5.67;;;5.60;99.90;;;10.12;100.00;97830.84;5033071;28;20033;-80
2024/03/28 05:00:10;;;;;;;11.20;6.10;;;5.60;99.90;;;10.07;100.00;97828.13;5033007;28;20512;-80
2024/03/28 05:02:36;;;;;;;8.45;5.43;;;5.60;99.90;;;9.75;100.00;97838.41;5015300;28;20056;-81
2024/03/28 05:05:06;;;;;;;9.45;5.40;;;5.60;99.90;;;9.98;100.00;97827.94;5015499;28;20396;-79
2024/03/28 05:07:32;;;;;;;12.77;6.70;;;5.60;99.90;;;10.13;100.00;97831.63;5032650;28;20101;-80
2024/03/28 05:09:58;;;;;;;10.52;6.65;;;5.60;99.90;;;10.10;100.00;97813.16;5033015;28;20030;-80
2024/03/28 05:12:24;;;;;;;11.55;6.18;;;5.60;99.90;;;10.32;100.00;97823.59;5015135;28;20041;-80
2024/03/28 05:14:50;;;;;;;11.48;6.47;;;5.60;99.90;;;10.15;100.00;97826.72;5032968;28;20037;-80
2024/03/28 05:17:16;;;;;;;13.57;6.65;;;5.50;99.90;;;10.08;100.00;97814.25;5015005;28;20043;-78
2024/03/28 05:19:42;;;;;;;10.15;6.45;;;5.60;99.90;;;10.11;100.00;97809.31;5032774;28;20520;-80
2024/03/28 05:22:08;;;;;;;9.95;6.35;;;5.50;99.90;;;10.01;100.00;97796.59;5032886;28;20045;-80
2024/03/28 05:24:33;;;;;;;10.43;6.88;;;5.60;99.90;;;10.15;100.00;97811.22;5032931;28;20095;-80
2024/03/28 05:27:00;;;;;;;11.07;6.70;;;5.60;99.90;;;10.15;100.00;97792.13;5033183;28;20069;-80
2024/03/28 05:29:26;;;;;;;12.50;6.97;;;5.60;99.90;;;10.00;100.00;97803.13;5033127;28;20396;-78
2024/03/28 05:31:52;;;;;;;13.18;7.40;;;5.60;99.90;;;10.13;100.00;97815.28;5033086;28;20046;-80
2024/03/28 05:34:17;;;;;;;12.52;7.32;;;5.60;99.90;;;10.29;100.00;97805.09;5032981;28;20041;-80
2024/03/28 05:36:43;;;;;;;12.52;6.47;;;5.60;99.90;;;10.24;100.00;97799.69;4998837;28;20122;-80
2024/03/28 05:39:09;;;;;;;10.32;6.82;;;5.60;99.90;;;10.58;100.00;97802.44;5033014;28;20088;-80
2024/03/28 05:41:35;;;;;;;12.50;7.15;;;5.70;99.90;;;10.43;100.00;97797.13;5032979;28;20492;-80
2024/03/28 05:44:02;;;;;;;11.50;6.78;;;5.70;99.90;;;10.48;100.00;97791.63;5032936;28;20049;-79
2024/03/28 05:46:28;;;;;;;11.10;6.65;;;5.70;99.90;;;10.76;100.00;97803.63;5032954;28;20029;-78
2024/03/28 05:48:54;;;;;;;15.65;7.10;;;5.70;99.90;;;10.87;100.00;97798.06;5032706;28;20439;-78
2024/03/28 05:51:20;;;;;;;15.73;8.40;;;5.70;99.90;;;10.85;100.00;97790.19;5032888;28;20033;-79
2024/03/28 05:53:48;;;;;;;11.57;7.40;;;5.80;99.90;;;10.51;100.00;97785.63;5032744;28;20116;-78
2024/03/28 05:56:15;;;;;;;15.63;8.40;;;5.80;99.90;;;10.68;100.00;97768.81;5015228;28;20033;-80
2024/03/28 05:58:41;;;;;;;13.02;8.25;;;5.80;99.90;;;10.86;100.00;97780.91;5032583;28;20381;-80
2024/03/28 06:01:06;;;;;;;12.63;7.95;;;5.90;99.90;;;10.90;100.00;97773.75;5032831;28;20045;-79
2024/03/28 06:03:32;;;;;;;18.35;8.52;;;6.00;99.90;;;10.74;100.00;97767.66;5032603;28;20041;-81
2024/03/28 06:05:58;;;;;;;12.30;7.70;;;6.00;99.90;;;10.77;100.00;97767.06;5032768;28;20094;-81
2024/03/28 06:08:24;;;;;;;14.95;8.35;;;6.00;99.90;;;10.78;100.00;97749.63;5032523;28;20128;-81
2024/03/28 06:10:50;;;;;;;12.88;7.75;;;6.00;99.90;;;10.71;100.00;97748.31;5032527;28;20041;-81
2024/03/28 06:13:16;;;;;;;12.65;7.82;;;6.00;99.90;;;10.84;100.00;97744.09;5032622;28;20033;-81
2024/03/28 06:15:43;;;;;;;13.95;7.80;;;6.10;99.90;;;10.67;100.00;97761.75;5032568;28;20045;-79
2024/03/28 06:18:11;;;;;;;15.32;8.45;;;6.10;99.90;;;10.81;100.00;97756.41;5032593;28;20499;-80
2024/03/28 06:20:39;;;;;;;14.20;8.50;;;6.10;99.90;;;10.84;100.00;97765.91;5031738;28;20072;-82
2024/03/28 06:23:05;;;;;;;15.75;8.20;;;6.10;99.90;;;10.90;100.00;97748.41;5032481;28;20045;-82
2024/03/28 06:25:35;;;;;;;12.38;7.80;;;6.20;99.90;;;11.01;100.00;97743.66;5032417;28;20057;-82
2024/03/28 06:28:01;;;;;;;13.93;8.27;;;6.20;99.90;;;10.84;100.00;97741.38;5032171;28;20044;-81
2024/03/28 06:30:27;;;;;;;14.52;7.90;;;6.30;99.90;;;10.50;100.00;97745.81;5032207;28;20037;-81
2024/03/28 06:32:52;;;;;;;15.82;8.43;;;6.30;99.90;;;10.83;100.00;97742.47;5032081;28;20060;-81
2024/03/28 06:35:19;;;;;;;15.43;8.70;;;6.40;99.90;;;10.71;100.00;97746.44;5032185;28;20064;-82
2024/03/28 06:37:45;;;;;;;16.75;9.15;;;6.50;99.90;;;11.11;100.00;97734.53;5032047;28;20056;-81
2024/03/28 06:40:11;;;;;;;16.33;9.25;;;6.50;99.90;;;10.98;100.00;97728.69;5032314;28;20042;-82
2024/03/28 06:42:37;;;;;;;15.48;9.15;;;6.60;99.90;;;11.01;100.00;97732.75;5032186;28;20042;-81
2024/03/28 06:45:03;;;;;;;17.80;9.93;;;6.60;99.90;;;11.19;100.00;97737.41;5032345;28;20090;-83
2024/03/28 06:47:28;;;;;;;17.73;9.65;;;6.70;99.90;;;11.32;100.00;97735.88;5032135;28;20449;-82
2024/03/28 06:49:54;;;;;;;15.38;9.50;;;6.80;99.90;;;10.56;100.00;97741.13;5032165;28;20041;-84
2024/03/28 06:52:20;;;;;;;16.73;9.07;;;6.90;99.90;;;10.82;100.00;97743.59;4998155;28;20087;-82
2024/03/28 06:54:46;;;;;;;14.60;8.30;;;6.90;99.90;;;10.70;100.00;97738.53;5030907;28;20042;-82
2024/03/28 06:57:11;;;;;;;17.60;8.50;;;6.90;99.90;;;11.00;100.00;97731.09;5032184;28;20041;-83
2024/03/28 06:59:37;;;;;;;11.90;8.40;;;6.90;99.90;;;11.30;100.00;97735.38;5031957;28;20057;-81
2024/03/28 07:02:03;;;;;;;16.48;7.60;;;6.90;99.90;;;11.14;100.00;97733.94;5014712;28;20037;-83
2024/03/28 07:04:29;;;;;;;11.43;6.75;;;7.00;99.90;;;11.15;100.00;97722.75;5031963;28;20398;-83
2024/03/28 07:06:54;;;;;;;11.10;6.88;;;7.00;99.90;;;11.41;100.00;97724.34;5031856;28;20048;-83
2024/03/28 07:09:21;;;;;;;11.55;7.40;;;7.00;99.90;;;10.85;100.00;97723.91;5032018;28;20061;-84
2024/03/28 07:11:47;;;;;;;11.50;6.82;;;7.00;99.90;;;11.51;100.00;97724.19;5031981;28;20484;-85
2024/03/28 07:14:16;;;;;;;10.13;5.90;;;7.10;99.90;;;11.43;100.00;97716.66;5031983;28;20378;-84
2024/03/28 07:16:42;;;;;;;10.38;7.18;;;7.10;99.90;;;11.53;100.00;97732.88;5031979;28;20034;-84
2024/03/28 07:19:07;;;;;;;10.32;6.30;;;7.20;99.90;;;11.48;100.00;97730.25;5032357;28;20037;-84
2024/03/28 07:21:33;;;;;;;11.32;6.65;;;7.30;99.90;;;11.33;100.00;97734.78;5031883;28;20503;-83
2024/03/28 07:23:59;;;;;;;9.23;5.70;;;7.40;99.90;;;11.50;100.00;97744.41;5014073;28;20053;-84
2024/03/28 07:26:25;;;;;;;12.82;6.03;;;7.50;99.90;;;11.71;100.00;97741.41;5031770;28;20056;-83
2024/03/28 07:28:51;;;;;;;9.38;5.53;;;7.70;99.90;;;11.57;100.00;97739.38;5031999;28;20120;-84
2024/03/28 07:31:16;;;;;;;9.52;5.53;;;7.70;99.90;;;11.50;100.00;97728.03;5033389;28;20477;-84
2024/03/28 07:33:44;;;;;;;6.72;4.65;;;7.80;99.90;;;11.72;100.00;97735.63;5017634;28;20042;-83
2024/03/28 07:36:11;;;;;;;8.35;4.70;;;7.80;99.90;;;11.47;100.00;97745.00;5035478;28;20033;-83
2024/03/28 07:38:37;;;;;;;7.15;4.82;;;7.90;99.90;;;11.51;100.00;97752.28;5035134;28;20029;-83
2024/03/28 07:41:03;;;;;;;7.35;4.32;;;7.80;99.90;;;11.75;100.00;97767.78;5017521;28;20052;-83
2024/03/28 07:43:29;;;;;;;6.97;4.38;;;7.90;99.90;;;11.99;100.00;97771.56;5036536;28;20040;-83
2024/03/28 07:46:06;;;;;;;5.72;3.45;;;8.20;99.90;;;11.99;100.00;97777.03;5017880;28;20041;-83
2024/03/28 07:48:33;;;;;;;5.65;3.55;;;8.40;99.90;;;12.31;100.00;97778.22;5034981;28;20041;-83
2024/03/28 07:51:03;;;;;;;6.90;3.72;;;8.50;99.90;;;12.60;100.00;97764.31;5035899;28;20040;-84
2024/03/28 07:53:32;;;;;;;5.70;3.50;;;8.60;99.90;;;12.84;100.00;97771.53;5017607;28;20056;-84
2024/03/28 07:55:59;;;;;;;5.57;3.40;;;8.70;99.90;;;12.63;97.82;97758.25;5035368;28;20102;-84
2024/03/28 07:58:25;;;;;;;6.10;3.30;;;8.70;99.90;;;13.31;98.29;97766.00;5034415;28;20034;-82
2024/03/28 08:00:52;;;;;;;6.90;3.42;;;8.80;99.90;;;13.23;93.06;97751.09;5017268;28;20086;-81
2024/03/28 08:03:18;;;;;;;4.97;3.10;;;9.00;99.90;;;13.51;91.07;97750.25;5034675;28;20048;-80
2024/03/28 08:05:49;;;;;;;5.60;3.53;;;9.30;99.90;;;13.32;91.17;97739.41;5016691;28;20398;-81
2024/03/28 08:08:16;;;;;;;6.30;3.70;;;9.60;99.90;;;12.82;90.29;97727.25;5034448;28;20037;-81
2024/03/28 08:10:42;;;;;;;4.55;2.85;;;9.60;99.90;;;12.51;95.67;97734.13;5035008;28;20056;-83
2024/03/28 08:13:08;;;;;;;6.53;3.65;;;9.50;99.90;;;12.99;93.33;97753.22;5034987;28;20041;-81
2024/03/28 08:15:34;;;;;;;5.70;3.40;;;9.50;99.90;;;12.52;92.12;97741.22;5034631;28;20052;-80
2024/03/28 08:18:03;;;;;;;5.32;3.85;;;9.40;99.90;;;12.97;93.25;97752.72;5017243;28;20485;-80
2024/03/28 08:20:29;;;;;;;5.60;4.13;;;9.40;99.90;;;13.07;93.14;97745.13;5050031;28;20038;-80
2024/03/28 08:22:56;;;;;;;7.85;4.22;;;9.50;99.90;;;13.56;92.46;97747.44;5034628;28;20045;-80
2024/03/28 08:25:23;;;;;;;5.95;3.80;;;9.50;99.90;;;13.37;88.70;97712.75;5034398;28;20029;-81
2024/03/28 08:27:52;;;;;;;6.35;4.28;;;9.50;99.90;;;13.44;89.29;97722.47;5034589;28;20103;-80
2024/03/28 08:30:19;;;;;;;5.70;3.70;;;9.70;99.90;;;13.07;87.80;97701.31;5016712;28;20400;-81
2024/03/28 08:32:45;;;;;;;7.45;3.97;;;9.60;99.90;;;12.70;88.41;97705.88;5036054;28;20124;-80
2024/03/28 08:35:11;;;;;;;7.40;3.97;;;9.40;99.90;;;13.35;87.70;97701.28;5017147;28;20033;-80
2024/03/28 08:37:39;;;;;;;7.55;4.50;;;9.40;99.90;;;13.24;87.97;97705.34;5035122;28;20026;-80
2024/03/28 08:40:09;;;;;;;;;;;9.60;99.90;;;13.16;85.84;97695.13;5017026;28;20096;-82
2024/03/28 08:42:39;;;;;;;6.38;3.70;;;9.60;99.90;;;13.09;86.45;97692.78;5034185;28;20402;-81
2024/03/28 08:45:08;;;;;;;5.53;3.78;;;9.50;99.90;;;12.84;88.51;97699.59;5034696;28;20408;-82
2024/03/28 08:47:37;;;;;;;7.53;4.07;;;9.40;99.90;;;12.75;88.10;97715.91;5034746;28;20041;-81
2024/03/28 08:50:04;;;;;;;8.68;3.97;;;9.40;99.90;;;13.40;88.45;97702.28;5034565;28;20043;-81
2024/03/28 08:52:31;;;;;;;7.78;3.97;;;9.60;99.90;;;13.58;86.03;97695.06;5034844;28;20032;-81
2024/03/28 08:54:57;;;;;;;7.45;3.75;;;9.70;99.90;;;13.30;86.01;97687.72;5035322;28;20041;-81
2024/03/28 08:57:23;;;;;;;6.18;3.88;;;9.80;99.90;;;13.62;84.27;97680.44;5018980;28;20099;-80
2024/03/28 08:59:52;;;;;;;6.25;3.92;;;10.00;99.90;;;13.76;85.62;97698.75;5053059;28;20042;-80
2024/03/28 09:02:24;;;;;;;7.43;3.88;;;10.10;99.90;;;13.21;84.42;97690.34;5036593;28;20044;-82
2024/03/28 09:04:51;;;;;;;7.50;4.60;;;10.10;99.90;;;13.99;83.96;97707.81;5035567;28;20043;-81
2024/03/28 09:07:19;;;;;;;7.82;4.30;;;10.20;99.90;;;13.95;82.56;97713.09;5040347;28;20037;-81
2024/03/28 09:09:45;;;;;;;7.35;4.70;;;10.30;99.90;;;13.54;82.57;97700.38;5063396;28;20041;-81
2024/03/28 09:12:11;;;;;;;9.73;4.55;;;10.30;99.90;;;14.44;78.36;97696.00;5047852;28;20042;-81
2024/03/28 09:14:38;;;;;;;6.35;3.80;;;10.40;99.90;;;14.04;80.99;97693.16;5039046;28;20045;-81
2024/03/28 09:17:04;;;;;;;6.88;4.20;;;10.50;99.90;;;14.49;80.49;97703.28;4999715;28;20037;-80
2024/03/28 09:19:31;;;;;;;5.30;3.88;;;10.70;99.90;;;14.12;79.57;97711.63;5033401;28;20124;-82
2024/03/28 09:21:56;;;;;;;6.47;4.10;;;10.90;99.90;;;14.38;79.87;97708.22;5015829;28;20107;-81
2024/03/28 09:24:22;;;;;;;7.82;4.10;;;11.00;99.90;;;14.22;84.32;97719.56;5015836;28;20041;-81
2024/03/28 09:26:48;;;;;;;6.80;4.15;;;11.20;99.90;;;14.03;80.80;97686.06;5015497;28;20048;-80
2024/03/28 09:29:19;;;;;;;5.97;4.07;;;11.10;99.90;;;14.14;83.54;97701.16;5032060;28;20037;-80
2024/03/28 09:31:49;;;;;;;6.50;4.22;;;11.10;99.90;;;14.39;81.84;97705.16;5033122;28;20441;-80
2024/03/28 09:34:17;;;;;;;5.53;3.72;;;11.30;99.90;;;14.56;72.74;97664.41;5015398;28;20041;-81
2024/03/28 09:36:43;;;;;;;7.60;4.25;;;11.40;99.90;;;14.20;78.24;97702.63;5048425;28;20033;-81
2024/03/28 09:39:13;;;;;;;6.80;4.10;;;11.30;99.90;;;14.57;77.11;97687.97;4999050;28;20041;-80
2024/03/28 09:41:45;;;;;;;8.80;4.68;;;11.20;99.90;;;14.83;78.96;97688.13;5015377;28;20041;-80
2024/03/28 09:44:19;;;;;;;8.85;5.35;;;;;;;15.35;77.38;97701.16;5048340;28;20448;-81
2024/03/28 09:46:49;;;;;;;7.40;5.00;;;;;;;14.74;75.57;97690.84;4998772;28;20508;-81
2024/03/28 09:49:16;;;;;;;6.72;4.85;;;;;;;15.56;76.14;97705.25;5033213;28;20037;-81
2024/03/28 09:51:44;;;;;;;9.30;5.28;;;;;;;15.89;68.46;97677.31;5032703;28;20163;-81
2024/03/28 09:54:11;;;;;;;9.80;5.40;;;;;;;15.69;68.35;97676.81;5032100;28;20053;-80
2024/03/28 09:56:37;;;;;;;7.78;4.30;;;;;;;16.19;64.85;97664.50;5032716;28;20357;-81
2024/03/28 09:59:04;;;;;;;9.60;5.30;;;;;;;16.06;64.97;97671.81;5014966;28;20065;-81
2024/03/28 10:01:33;;;;;;;6.35;4.53;;;;;;;16.79;62.69;97667.38;5032688;28;20068;-81
2024/03/28 10:04:14;;;;;;;5.80;4.28;;;;;;;17.00;59.59;97647.38;4998621;28;20526;-80
2024/03/28 10:06:53;;;;;;;8.10;4.20;;;;;;;16.54;59.46;97636.88;5015039;28;20046;-81
2024/03/28 10:09:19;;;;;;;5.20;3.42;;;;;;;17.77;56.04;97628.97;5015047;28;20048;-81
2024/03/28 10:11:45;;;;;;;7.00;3.90;;;;;;;19.24;53.65;97618.50;5014832;28;20511;-82
2024/03/28 10:14:26;;;;;;;5.22;3.50;;;;;;;20.74;47.66;97579.81;5032461;28;20029;-82
2024/03/28 10:17:01;;;;;;;4.53;3.25;;;;;;;19.94;46.77;97544.66;5032622;28;20037;-81
2024/03/28 10:19:29;;;;;;;4.22;2.83;;;11.40;99.90;;;19.04;49.90;97570.53;5032449;28;20033;-80
2024/03/28 10:22:09;;;;;;;5.28;3.15;;;;;;;18.20;51.89;97580.06;5014789;28;20120;-80
2024/03/28 10:24:37;;;;;;;4.45;2.97;;;;;;;18.55;52.67;97602.50;5032385;28;20559;-82